Time;durP1;ratioP1;P1;durP2;ratioP2;P2;SDS_P1;SDS_P2;PMS_P1;PMS_P2;Temp;Humidity;BMP_temperature;BMP_pressure;BME280_temperature;BME280_humidity;BME280_pressure;Samples;Min_cycle;Max_cycle;Signal;HPM_P1;HPM_P2
2024/01/10 00:02:03;;;;;;;18.27;10.80;;;;;;;;;;5046259;28;20110;-69
2024/01/10 00:04:29;;;;;;;17.65;10.38;;;;;;;;;;5048287;28;20115;-69
2024/01/10 00:06:55;;;;;;;17.05;10.02;;;;;;;;;;5051118;28;20051;-69
2024/01/10 00:09:21;;;;;;;18.95;10.38;;;;;;;;;;5049898;28;20044;-69
2024/01/10 00:11:47;;;;;;;18.67;10.00;;;;;;;;;;5047636;28;20052;-69
2024/01/10 00:14:13;;;;;;;18.13;10.25;;;;;;;;;;5046945;28;20035;-69
2024/01/10 00:16:39;;;;;;;16.25;10.15;;;;;;;;;;5064421;28;20040;-69
2024/01/10 00:19:05;;;;;;;17.13;10.80;;;;;;;;;;5050281;28;20379;-69
2024/01/10 00:21:31;;;;;;;17.85;10.40;;;;;;;;;;5049360;28;20041;-69
2024/01/10 00:23:57;;;;;;;17.55;10.60;;;;;;;;;;5050022;28;20056;-69
2024/01/10 00:26:23;;;;;;;16.27;10.43;;;;;;;;;;5048994;28;21286;-69
2024/01/10 00:28:50;;;;;;;18.88;11.20;;;;;;;;;;5048589;28;21559;-69
2024/01/10 00:31:16;;;;;;;18.58;10.73;;;;;;;;;;5049885;28;20141;-69
2024/01/10 00:33:42;;;;;;;18.13;10.52;;;;;;;;;;5049587;28;20035;-69
2024/01/10 00:36:08;;;;;;;18.23;11.07;;;;;;;;;;5048358;28;20024;-69
2024/01/10 00:38:34;;;;;;;19.33;10.80;;;;;;;;;;5048577;28;20044;-69
2024/01/10 00:41:00;;;;;;;20.45;12.05;;;;;;;;;;5064478;28;20037;-69
2024/01/10 00:43:26;;;;;;;19.27;11.65;;;;;;;;;;5048830;28;20502;-68
2024/01/10 00:45:53;;;;;;;18.05;11.35;;;;;;;;;;5049689;28;20112;-69
2024/01/10 00:48:19;;;;;;;18.40;11.48;;;;;;;;;;5049702;28;20148;-69
2024/01/10 00:50:45;;;;;;;21.45;12.40;;;;;;;;;;5048452;28;21523;-69
2024/01/10 00:53:11;;;;;;;19.58;12.38;;;;;;;;;;5049530;28;20082;-69
2024/01/10 00:55:37;;;;;;;21.02;12.20;;;;;;;;;;5049020;28;20024;-69
2024/01/10 00:58:03;;;;;;;18.83;11.68;;;;;;;;;;5048964;28;20036;-69
2024/01/10 01:00:29;;;;;;;22.13;12.20;;;;;;;;;;5049159;28;20066;-69
2024/01/10 01:02:55;;;;;;;21.67;11.70;;;;;;;;;;5048609;28;20377;-69
2024/01/10 01:05:21;;;;;;;20.35;11.45;;;;;;;;;;5049451;28;20126;-69
2024/01/10 01:07:47;;;;;;;20.40;12.20;;;;;;;;;;5048354;28;20044;-69
2024/01/10 01:10:13;;;;;;;19.63;11.90;;;;;;;;;;5047076;28;20546;-69
2024/01/10 01:12:39;;;;;;;17.73;11.45;;;;;;;;;;5048534;28;20040;-69
2024/01/10 01:15:06;;;;;;;18.02;10.50;;;;;;;;;;5048450;28;20078;-69
2024/01/10 01:17:32;;;;;;;18.85;11.23;;;;;;;;;;5047217;28;20033;-69
2024/01/10 01:19:59;;;;;;;17.50;10.90;;;;;;;;;;5049200;28;20043;-69
2024/01/10 01:22:25;;;;;;;18.15;10.90;;;;;;;;;;5048715;28;20109;-69
2024/01/10 01:24:51;;;;;;;17.70;9.95;;;;;;;;;;5048616;28;20025;-69
2024/01/10 01:27:17;;;;;;;16.95;10.40;;;;;;;;;;5046186;28;20142;-69
2024/01/10 01:29:43;;;;;;;18.25;10.50;;;;;;;;;;5048456;28;20024;-68
2024/01/10 01:32:09;;;;;;;17.98;11.07;;;;;;;;;;5048392;28;21333;-68
2024/01/10 01:34:35;;;;;;;20.08;10.27;;;;;;;;;;5047609;28;21067;-68
2024/01/10 01:37:01;;;;;;;17.42;9.98;;;;;;;;;;5046894;28;20036;-68
2024/01/10 01:39:27;;;;;;;16.63;9.88;;;;;;;;;;5048892;28;20048;-68
2024/01/10 01:41:53;;;;;;;17.48;10.35;;;;;;;;;;5048158;28;20039;-68
2024/01/10 01:44:19;;;;;;;18.58;10.57;;;;;;;;;;5046607;28;20060;-68
2024/01/10 01:46:47;;;;;;;19.77;10.85;;;;;;;;;;5048512;28;20060;-68
2024/01/10 01:49:13;;;;;;;20.30;10.85;;;;;;;;;;5048724;28;20033;-68
2024/01/10 01:51:40;;;;;;;21.08;11.75;;;;;;;;;;5048021;28;20047;-68
2024/01/10 01:54:11;;;;;;;19.02;11.75;;;;;;;;;;5049406;28;20036;-68
2024/01/10 01:56:37;;;;;;;23.83;12.77;;;;;;;;;;5047656;28;20124;-68
2024/01/10 01:59:04;;;;;;;22.30;13.18;;;;;;;;;;5047174;28;20079;-68
2024/01/10 02:01:31;;;;;;;22.13;13.73;;;;;;;;;;5047927;28;20102;-68
2024/01/10 02:03:57;;;;;;;22.83;14.35;;;;;;;;;;5048451;28;21114;-68
2024/01/10 02:06:23;;;;;;;23.77;13.80;;;;;;;;;;5048343;28;20056;-68
2024/01/10 02:08:49;;;;;;;22.15;13.75;;;;;;;;;;5048414;28;20150;-68
2024/01/10 02:11:15;;;;;;;26.17;14.63;;;;;;;;;;5047244;28;20044;-68
2024/01/10 02:13:42;;;;;;;23.55;14.15;;;;;;;;;;5047837;28;20033;-68
2024/01/10 02:16:09;;;;;;;27.08;14.15;;;;;;;;;;5047801;28;20033;-68
2024/01/10 02:18:35;;;;;;;24.42;13.82;;;;;;;;;;5047599;28;20047;-68
2024/01/10 02:21:01;;;;;;;22.35;13.02;;;;;;;;;;5047715;28;20877;-68
2024/01/10 02:23:27;;;;;;;23.17;13.95;;;;;;;;;;5044601;28;20680;-68
2024/01/10 02:25:53;;;;;;;21.77;14.20;;;;;;;;;;5047730;28;20032;-68
2024/01/10 02:28:19;;;;;;;24.33;14.80;;;;;;;;;;5046893;28;20034;-68
2024/01/10 02:30:47;;;;;;;22.48;14.48;;;;;;;;;;5047078;28;20679;-67
2024/01/10 02:33:13;;;;;;;21.08;12.27;;;;;;;;;;5047315;28;20028;-68
2024/01/10 02:35:39;;;;;;;19.52;12.75;;;;;;;;;;5047436;28;20044;-68
2024/01/10 02:38:07;;;;;;;20.48;11.38;;;;;;;;;;5047648;28;20051;-68
2024/01/10 02:40:33;;;;;;;19.92;12.88;;;;;;;;;;5046806;28;20719;-68
2024/01/10 02:42:59;;;;;;;20.27;12.82;;;;;;;;;;5047821;28;20135;-68
2024/01/10 02:45:25;;;;;;;21.15;13.10;;;;;;;;;;5045634;28;20044;-68
2024/01/10 02:47:51;;;;;;;20.58;12.48;;;;;;;;;;5047621;28;20110;-68
2024/01/10 02:50:17;;;;;;;22.73;13.23;;;;;;;;;;5047541;28;20484;-68
2024/01/10 02:52:43;;;;;;;20.42;12.80;;;;;;;;;;5045761;28;20033;-68
2024/01/10 02:55:09;;;;;;;23.10;11.82;;;;;;;;;;5045955;28;20055;-68
2024/01/10 02:57:35;;;;;;;20.08;12.38;;;;;;;;;;5047713;28;20025;-68
2024/01/10 03:00:01;;;;;;;22.73;12.68;;;;;;;;;;5046367;28;20483;-68
2024/01/10 03:02:27;;;;;;;21.13;11.07;;;;;;;;;;5047378;28;20028;-68
2024/01/10 03:04:53;;;;;;;20.88;12.63;;;;;;;;;;5047146;28;20089;-68
2024/01/10 03:07:19;;;;;;;20.13;12.25;;;;;;;;;;5046687;28;20068;-68
2024/01/10 03:09:45;;;;;;;20.55;12.70;;;;;;;;;;5037923;28;20047;-68
2024/01/10 03:12:12;;;;;;;22.42;13.15;;;;;;;;;;5047288;28;20032;-68
2024/01/10 03:14:38;;;;;;;22.80;12.63;;;;;;;;;;5046830;28;20032;-67
2024/01/10 03:17:04;;;;;;;18.95;11.80;;;;;;;;;;5047199;28;20054;-68
2024/01/10 03:19:30;;;;;;;23.20;12.10;;;;;;;;;;5047150;28;20070;-68
2024/01/10 03:21:57;;;;;;;18.70;11.05;;;;;;;;;;5046205;28;20027;-68
2024/01/10 03:24:26;;;;;;;20.23;12.05;;;;;;;;;;5047546;28;20029;-68
2024/01/10 03:26:52;;;;;;;21.35;11.65;;;;;;;;;;5046559;28;20799;-68
2024/01/10 03:29:18;;;;;;;21.83;11.70;;;;;;;;;;5046888;28;20040;-67
2024/01/10 03:31:44;;;;;;;21.08;12.27;;;;;;;;;;5046778;28;20025;-68
2024/01/10 03:34:10;;;;;;;19.67;11.68;;;;;;;;;;5046950;28;20143;-68
2024/01/10 03:36:36;;;;;;;19.75;11.15;;;;;;;;;;5045180;28;20033;-69
2024/01/10 03:39:02;;;;;;;20.73;11.95;;;;;;;;;;5063840;28;21774;-68
2024/01/10 03:41:28;;;;;;;19.85;11.18;;;;;;;;;;5050919;28;20040;-68
2024/01/10 03:43:54;;;;;;;18.92;11.25;;;;;;;;;;5050598;28;20460;-68
2024/01/10 03:46:21;;;;;;;19.20;11.27;;;;;;;;;;5050274;28;20551;-69
2024/01/10 03:48:51;;;;;;;19.33;10.52;;;;;;;;;;5050126;28;20746;-68
2024/01/10 03:51:18;;;;;;;20.77;11.32;;;;;;;;;;5049810;28;20081;-68
2024/01/10 03:53:44;;;;;;;17.55;10.57;;;;;;;;;;5065606;28;20048;-68
2024/01/10 03:56:10;;;;;;;19.77;10.88;;;;;;;;;;5049958;28;20060;-68
2024/01/10 03:58:36;;;;;;;18.38;10.63;;;;;;;;;;5049497;28;20535;-68
2024/01/10 04:01:06;;;;;;;18.88;11.30;;;;;;;;;;5050246;28;20471;-68
2024/01/10 04:03:32;;;;;;;18.45;10.95;;;;;;;;;;5049744;28;20032;-68
2024/01/10 04:05:58;;;;;;;20.13;11.02;;;;;;;;;;5049408;28;20060;-68
2024/01/10 04:08:24;;;;;;;16.67;9.88;;;;;;;;;;5048061;28;20044;-68
2024/01/10 04:10:50;;;;;;;21.15;12.35;;;;;;;;;;5047451;28;20053;-68
2024/01/10 04:13:16;;;;;;;20.27;12.27;;;;;;;;;;5065615;28;20040;-68
2024/01/10 04:15:43;;;;;;;24.92;13.07;;;;;;;;;;5050234;28;20044;-69
2024/01/10 04:18:09;;;;;;;21.73;12.35;;;;;;;;;;5049626;28;20037;-69
2024/01/10 04:20:35;;;;;;;19.15;11.68;;;;;;;;;;5049034;28;20043;-68
2024/01/10 04:23:01;;;;;;;21.77;12.20;;;;;;;;;;5059459;28;20729;-68
2024/01/10 04:25:27;;;;;;;19.95;11.75;;;;;;;;;;5049804;28;20048;-68
2024/01/10 04:27:53;;;;;;;21.17;11.95;;;;;;;;;;5050086;28;20037;-69
2024/01/10 04:30:19;;;;;;;20.38;12.25;;;;;;;;;;5049293;28;20090;-69
2024/01/10 04:32:45;;;;;;;17.73;11.10;;;;;;;;;;5049843;28;20040;-69
2024/01/10 04:35:11;;;;;;;17.00;10.63;;;;;;;;;;5049052;28;20438;-69
2024/01/10 04:37:37;;;;;;;17.70;10.63;;;;;;;;;;5049551;28;20028;-69
2024/01/10 04:40:04;;;;;;;22.92;12.50;;;;;;;;;;5049815;28;20039;-69
2024/01/10 04:42:30;;;;;;;18.70;11.00;;;;;;;;;;5049408;28;20029;-69
2024/01/10 04:44:57;;;;;;;23.73;11.43;;;;;;;;;;5049366;28;20063;-69
2024/01/10 04:47:23;;;;;;;15.75;10.27;;;;;;;;;;5049121;28;20154;-69
2024/01/10 04:49:49;;;;;;;19.83;11.90;;;;;;;;;;5048849;28;20036;-69
2024/01/10 04:52:15;;;;;;;16.90;10.57;;;;;;;;;;5047890;28;20037;-69
2024/01/10 04:54:41;;;;;;;23.85;11.80;;;;;;;;;;5049333;28;20028;-69
2024/01/10 04:57:10;;;;;;;19.35;11.25;;;;;;;;;;5048142;28;20074;-69
2024/01/10 04:59:36;;;;;;;21.85;11.20;;;;;;;;;;5048587;28;20067;-69
2024/01/10 05:02:02;;;;;;;19.02;11.18;;;;;;;;;;5047120;28;20467;-69
2024/01/10 05:04:28;;;;;;;19.67;11.68;;;;;;;;;;5048009;28;20039;-69
2024/01/10 05:06:54;;;;;;;19.50;11.27;;;;;;;;;;5064030;28;20041;-69
2024/01/10 05:09:20;;;;;;;20.73;11.75;;;;;;;;;;5048144;28;20049;-69
2024/01/10 05:11:51;;;;;;;20.50;11.27;;;;;;;;;;5064615;28;20061;-69
2024/01/10 05:14:19;;;;;;;21.00;12.77;;;;;;;;;;5064427;28;20119;-69
2024/01/10 05:16:45;;;;;;;19.10;11.77;;;;;;;;;;5048875;28;20043;-69
2024/01/10 05:19:11;;;;;;;22.45;11.93;;;;;;;;;;5046382;28;20032;-69
2024/01/10 05:21:37;;;;;;;22.65;11.90;;;;;;;;;;5049054;28;20040;-69
2024/01/10 05:24:04;;;;;;;17.25;10.80;;;;;;;;;;5048712;28;20028;-69
2024/01/10 05:26:30;;;;;;;21.45;12.27;;;;;;;;;;5048710;28;20595;-69
2024/01/10 05:28:56;;;;;;;18.40;11.18;;;;;;;;;;5063112;28;20042;-69
2024/01/10 05:31:22;;;;;;;20.67;11.60;;;;;;;;;;5048419;28;20028;-69
2024/01/10 05:33:48;;;;;;;20.75;11.77;;;;;;;;;;5047420;28;20133;-69
2024/01/10 05:36:14;;;;;;;18.23;10.45;;;;;;;;;;5047521;28;20033;-69
2024/01/10 05:38:41;;;;;;;21.05;12.30;;;;;;;;;;5047859;28;20035;-69
2024/01/10 05:41:07;;;;;;;18.83;11.00;;;;;;;;;;5048317;28;20058;-69
2024/01/10 05:43:33;;;;;;;18.92;11.93;;;;;;;;;;5048691;28;20372;-69
2024/01/10 05:46:00;;;;;;;19.48;11.63;;;;;;;;;;5063173;28;20083;-69
2024/01/10 05:48:26;;;;;;;18.67;11.77;;;;;;;;;;5046704;28;20036;-69
2024/01/10 05:50:52;;;;;;;20.17;10.55;;;;;;;;;;5047179;28;20082;-69
2024/01/10 05:53:18;;;;;;;19.15;11.75;;;;;;;;;;5048062;28;20036;-69
2024/01/10 05:55:45;;;;;;;19.75;12.30;;;;;;;;;;5047014;28;20056;-69
2024/01/10 05:58:11;;;;;;;24.60;13.20;;;;;;;;;;5048229;28;20036;-69
2024/01/10 06:00:37;;;;;;;21.92;12.82;;;;;;;;;;5047311;28;20036;-69
2024/01/10 06:03:03;;;;;;;21.30;13.02;;;;;;;;;;5046933;28;20395;-69
2024/01/10 06:05:31;;;;;;;24.23;13.32;;;;;;;;;;5047295;28;20130;-69
2024/01/10 06:07:57;;;;;;;22.45;13.60;;;;;;;;;;5056984;28;20059;-69
2024/01/10 06:10:24;;;;;;;22.90;13.98;;;;;;;;;;5047227;28;20052;-69
2024/01/10 06:12:50;;;;;;;21.73;13.80;;;;;;;;;;5063206;28;20033;-69
2024/01/10 06:15:16;;;;;;;24.73;15.23;;;;;;;;;;5047030;28;20033;-69
2024/01/10 06:17:43;;;;;;;26.58;14.63;;;;;;;;;;5047526;28;20087;-68
2024/01/10 06:20:09;;;;;;;24.08;14.32;;;;;;;;;;5046853;28;20102;-69
2024/01/10 06:22:35;;;;;;;26.55;14.98;;;;;;;;;;5046018;28;20055;-69
2024/01/10 06:25:01;;;;;;;24.30;15.30;;;;;;;;;;5046820;28;20035;-69
2024/01/10 06:27:27;;;;;;;24.25;15.20;;;;;;;;;;5047663;28;21457;-69
2024/01/10 06:29:54;;;;;;;24.60;15.65;;;;;;;;;;5047281;28;20762;-69
2024/01/10 06:32:20;;;;;;;23.77;15.38;;;;;;;;;;5047813;28;20028;-68
2024/01/10 06:34:46;;;;;;;27.85;16.75;;;;;;;;;;5057339;28;20163;-69
2024/01/10 06:37:12;;;;;;;25.27;15.40;;;;;;;;;;5046206;28;20064;-69
2024/01/10 06:39:38;;;;;;;25.05;15.82;;;;;;;;;;5047506;28;20044;-69
2024/01/10 06:42:06;;;;;;;22.92;14.98;;;;;;;;;;5046744;28;20071;-69
2024/01/10 06:44:32;;;;;;;27.95;15.93;;;;;;;;;;5046591;28;20028;-69
2024/01/10 06:46:58;;;;;;;28.05;16.15;;;;;;;;;;5046936;28;20115;-69
2024/01/10 06:49:24;;;;;;;30.40;16.80;;;;;;;;;;5046021;28;20036;-69
2024/01/10 06:51:51;;;;;;;27.25;16.13;;;;;;;;;;5046637;28;20070;-69
2024/01/10 06:54:18;;;;;;;25.25;15.07;;;;;;;;;;5062675;28;20049;-69
2024/01/10 06:56:44;;;;;;;25.55;16.23;;;;;;;;;;5046637;28;20082;-69
2024/01/10 06:59:10;;;;;;;24.35;15.25;;;;;;;;;;5047016;28;20483;-69
2024/01/10 07:01:36;;;;;;;24.85;15.48;;;;;;;;;;5047546;28;20040;-69
2024/01/10 07:04:04;;;;;;;27.40;15.82;;;;;;;;;;5046141;28;20079;-69
2024/01/10 07:06:30;;;;;;;25.63;16.27;;;;;;;;;;5047180;28;20044;-69
2024/01/10 07:08:58;;;;;;;25.63;15.50;;;;;;;;;;5047202;28;20032;-69
2024/01/10 07:11:24;;;;;;;23.67;14.95;;;;;;;;;;5044619;28;20187;-69
2024/01/10 07:13:50;;;;;;;37.88;18.95;;;;;;;;;;5048320;28;20040;-69
2024/01/10 07:16:16;;;;;;;23.02;14.95;;;;;;;;;;5042310;28;20028;-69
2024/01/10 07:18:43;;;;;;;26.65;16.02;;;;;;;;;;5051125;28;20040;-69
2024/01/10 07:21:10;;;;;;;25.38;16.88;;;;;;;;;;5050204;28;20579;-69
2024/01/10 07:23:40;;;;;;;25.38;14.75;;;;;;;;;;5051283;28;20075;-69
2024/01/10 07:26:06;;;;;;;20.60;13.18;;;;;;;;;;5049465;28;20123;-69
2024/01/10 07:28:32;;;;;;;19.58;12.13;;;;;;;;;;5050690;28;20064;-69
2024/01/10 07:31:01;;;;;;;20.45;9.98;;;;;;;;;;5049140;28;20090;-68
2024/01/10 07:33:30;;;;;;;17.35;10.02;;;;;;;;;;5049215;28;20024;-69
2024/01/10 07:35:56;;;;;;;15.77;9.38;;;;;;;;;;5049577;28;20035;-69
2024/01/10 07:38:22;;;;;;;17.20;10.32;;;;;;;;;;5050343;28;20082;-69
2024/01/10 07:40:48;;;;;;;21.75;10.27;;;;;;;;;;5050247;28;20047;-69
2024/01/10 07:43:14;;;;;;;18.20;10.07;;;;;;;;;;5050608;28;20094;-69
2024/01/10 07:45:40;;;;;;;18.20;9.75;;;;;;;;;;5050165;28;20062;-69
2024/01/10 07:48:07;;;;;;;20.10;10.50;;;;;;;;;;5050232;28;20051;-69
2024/01/10 07:50:33;;;;;;;19.13;9.43;;;;;;;;;;5065419;28;20044;-69
2024/01/10 07:53:01;;;;;;;16.83;9.85;;;;;;;;;;5050047;28;20611;-69
2024/01/10 07:55:29;;;;;;;19.20;10.13;;;;;;;;;;5049720;28;20040;-69
2024/01/10 07:57:55;;;;;;;22.50;10.35;;;;;;;;;;5049739;28;20042;-69
2024/01/10 08:00:22;;;;;;;18.08;9.23;;;;;;;;;;5048376;28;20117;-69
2024/01/10 08:02:50;;;;;;;18.45;9.85;;;;;;;;;;5049215;28;20037;-69
2024/01/10 08:05:16;;;;;;;20.58;10.70;;;;;;;;;;5050013;28;20616;-69
2024/01/10 08:07:42;;;;;;;19.08;10.68;;;;;;;;;;5049942;28;20047;-69
2024/01/10 08:10:13;;;;;;;22.08;10.93;;;;;;;;;;5047966;28;20055;-69
2024/01/10 08:12:39;;;;;;;17.15;8.60;;;;;;;;;;5049185;28;20032;-69
2024/01/10 08:15:08;;;;;;;17.55;9.35;;;;;;;;;;5049346;28;20037;-69
2024/01/10 08:17:37;;;;;;;16.85;9.15;;;;;;;;;;5048973;28;20035;-69
2024/01/10 08:20:03;;;;;;;17.63;9.07;;;;;;;;;;5048041;28;20063;-69
2024/01/10 08:22:30;;;;;;;18.50;9.65;;;;;;;;;;5049799;28;20021;-69
2024/01/10 08:24:56;;;;;;;19.20;8.88;;;;;;;;;;5064593;28;20024;-69
2024/01/10 08:27:22;;;;;;;18.10;9.20;;;;;;;;;;5049980;28;21726;-69
2024/01/10 08:29:48;;;;;;;20.13;10.52;;;;;;;;;;5040527;28;20072;-68
2024/01/10 08:32:15;;;;;;;17.73;9.85;;;;;;;;;;5064409;28;20110;-68
2024/01/10 08:34:41;;;;;;;20.25;10.45;;;;;;;;;;5049629;28;20044;-68
2024/01/10 08:37:07;;;;;;;18.08;11.43;;;;;;;;;;5049548;28;20032;-68
2024/01/10 08:39:33;;;;;;;23.02;11.45;;;;;;;;;;5049293;28;20072;-68
2024/01/10 08:41:59;;;;;;;24.25;12.85;;;;;;;;;;5049271;28;20082;-68
2024/01/10 08:44:25;;;;;;;21.13;11.73;;;;;;;;;;5049702;28;20037;-68
2024/01/10 08:46:52;;;;;;;21.40;12.85;;;;;;;;;;5049801;28;20049;-68
2024/01/10 08:49:18;;;;;;;25.23;12.27;;;;;;;;;;5048889;28;20111;-68
2024/01/10 08:51:46;;;;;;;26.30;15.25;;;;;;;;;;5049485;28;20793;-68
2024/01/10 08:54:16;;;;;;;22.98;12.80;;;;;;;;;;5048866;28;20039;-68
2024/01/10 08:56:43;;;;;;;25.15;13.82;;;;;;;;;;5048610;28;20063;-68
2024/01/10 08:59:10;;;;;;;27.88;15.05;;;;;;;;;;5048747;28;20033;-66
2024/01/10 09:01:36;;;;;;;28.15;14.25;;;;;;;;;;5064594;28;20040;-68
2024/01/10 09:04:04;;;;;;;38.33;14.57;;;;;;;;;;5049234;28;20051;-68
2024/01/10 09:06:31;;;;;;;27.75;15.13;;;;;;;;;;5049192;28;20043;-68
2024/01/10 09:08:57;;;;;;;25.80;14.23;;;;;;;;;;5049278;28;20040;-68
2024/01/10 09:11:24;;;;;;;27.33;13.65;;;;;;;;;;5048167;28;20140;-68
2024/01/10 09:13:50;;;;;;;26.52;12.55;;;;;;;;;;5048360;28;21044;-68
2024/01/10 09:16:18;;;;;;;25.48;12.68;;;;;;;;;;5048504;28;20040;-68
2024/01/10 09:18:44;;;;;;;25.20;12.60;;;;;;;;;;5048503;28;20032;-68
2024/01/10 09:21:10;;;;;;;22.98;12.45;;;;;;;;;;5048989;28;20470;-66
2024/01/10 09:23:37;;;;;;;23.35;11.50;;;;;;;;;;5047426;28;20036;-66
2024/01/10 09:26:03;;;;;;;23.65;12.73;;;;;;;;;;5048947;28;20080;-67
2024/01/10 09:28:29;;;;;;;26.55;12.50;;;;;;;;;;5046885;28;20037;-67
2024/01/10 09:30:55;;;;;;;23.75;10.82;;;;;;;;;;5064594;28;20043;-67
2024/01/10 09:33:22;;;;;;;28.65;14.02;;;;;;;;;;5048320;28;20616;-67
2024/01/10 09:35:48;;;;;;;23.42;11.63;;;;;;;;;;5048238;28;20040;-67
2024/01/10 09:38:15;;;;;;;24.48;11.10;;;;;;;;;;5047732;28;20115;-67
2024/01/10 09:40:42;;;;;;;24.00;12.05;;;;;;;;;;5047006;28;20036;-67
2024/01/10 09:43:08;;;;;;;25.65;12.85;;;;;;;;;;5048738;28;20106;-67
2024/01/10 09:45:36;;;;;;;24.38;12.13;;;;;;;;;;5047781;28;20037;-67
2024/01/10 09:48:02;;;;;;;23.65;10.80;;;;;;;;;;5047545;28;20036;-67
2024/01/10 09:50:29;;;;;;;23.25;11.95;;;;;;;;;;5047690;28;20024;-67
2024/01/10 09:53:00;;;;;;;22.48;10.82;;;;;;;;;;5047403;28;20026;-67
2024/01/10 09:55:27;;;;;;;25.17;12.45;;;;;;;;;;5048144;28;20971;-67
2024/01/10 09:57:53;;;;;;;23.17;11.52;;;;;;;;;;5047922;28;20033;-67
2024/01/10 10:00:21;;;;;;;22.65;12.50;;;;;;;;;;5047148;28;20680;-67
2024/01/10 10:02:50;;;;;;;21.88;11.05;;;;;;;;;;5047623;28;20031;-67
2024/01/10 10:05:16;;;;;;;23.13;12.18;;;;;;;;;;5047585;28;21065;-67
2024/01/10 10:07:49;;;;;;;22.60;11.05;;;;;;;;;;5047584;28;20043;-67
2024/01/10 10:10:16;;;;;;;22.58;10.82;;;;;;;;;;5047678;28;20496;-67
2024/01/10 10:12:49;;;;;;;19.95;9.77;;;;;;;;;;5047322;28;20022;-67
2024/01/10 10:15:16;;;;;;;20.25;9.60;;;;;;;;;;5047286;28;20033;-67
2024/01/10 10:17:47;;;;;;;20.00;9.88;;;;;;;;;;5047654;28;20044;-67
2024/01/10 10:20:26;;;;;;;22.35;10.07;;;;;;;;;;5046832;28;20040;-67
2024/01/10 10:23:01;;;;;;;18.73;9.85;;;;;;;;;;5047946;28;20036;-67
2024/01/10 10:25:37;;;;;;;19.33;10.23;;;;;;;;;;5038214;28;20033;-67
2024/01/10 10:28:04;;;;;;;22.45;9.23;;;;;;;;;;5047034;28;20765;-67
2024/01/10 10:30:31;;;;;;;18.77;8.70;;;;;;;;;;5047258;28;20111;-68
2024/01/10 10:32:57;;;;;;;19.05;9.88;;;;;;;;;;5047233;28;20020;-68
2024/01/10 10:35:24;;;;;;;17.65;9.23;;;;;;;;;;5047362;28;20093;-68
2024/01/10 10:37:51;;;;;;;17.80;9.48;;;;;;;;;;5047703;28;20032;-68
2024/01/10 10:40:18;;;;;;;17.42;8.63;;;;;;;;;;5047536;28;20012;-68
2024/01/10 10:42:49;;;;;;;18.77;8.48;;;;;;;;;;5047068;28;20082;-69
2024/01/10 10:45:17;;;;;;;17.73;8.73;;;;;;;;;;5047914;28;20563;-68
2024/01/10 10:47:45;;;;;;;17.50;8.63;;;;;;;;;;5047298;28;20025;-68
2024/01/10 10:50:14;;;;;;;16.42;7.65;;;;;;;;;;5047266;28;20037;-68
2024/01/10 10:52:43;;;;;;;16.17;8.45;;;;;;;;;;5047731;28;20028;-68
2024/01/10 10:55:11;;;;;;;15.43;7.47;;;;;;;;;;5047488;28;20036;-69
2024/01/10 10:57:37;;;;;;;18.25;7.50;;;;;;;;;;5047315;28;20079;-68
2024/01/10 11:00:07;;;;;;;14.90;7.78;;;;;;;;;;5048089;28;20028;-69
2024/01/10 11:02:35;;;;;;;13.50;6.95;;;;;;;;;;5047348;28;20032;-69
2024/01/10 11:05:01;;;;;;;15.38;7.07;;;;;;;;;;5047940;28;20060;-68
2024/01/10 11:07:28;;;;;;;15.90;8.55;;;;;;;;;;5046456;28;21854;-68
2024/01/10 11:09:54;;;;;;;14.90;7.30;;;;;;;;;;5046786;28;20045;-68
2024/01/10 11:12:28;;;;;;;16.25;7.93;;;;;;;;;;5063060;28;20032;-68
2024/01/10 11:14:57;;;;;;;13.27;6.70;;;;;;;;;;5047210;28;20118;-68
2024/01/10 11:17:35;;;;;;;14.68;7.53;;;;;;;;;;5047265;28;20090;-68
2024/01/10 11:20:05;;;;;;;12.80;6.75;;;;;;;;;;5062584;28;20969;-68
2024/01/10 11:22:43;;;;;;;14.18;6.68;;;;;;;;;;5046889;28;20106;-68
2024/01/10 11:25:10;;;;;;;16.02;7.95;;;;;;;;;;5047726;28;20075;-68
2024/01/10 11:27:37;;;;;;;15.45;8.25;;;;;;;;;;5047829;28;20059;-68
2024/01/10 11:30:05;;;;;;;16.52;7.65;;;;;;;;;;5047302;28;20043;-68
2024/01/10 11:32:35;;;;;;;14.02;6.65;;;;;;;;;;5048076;28;20078;-69
2024/01/10 11:35:01;;;;;;;14.23;7.13;;;;;;;;;;5061957;28;20070;-68
2024/01/10 11:37:54;;;;;;;13.40;7.07;;;;;;;;;;5046676;28;20040;-68
2024/01/10 11:40:39;;;;;;;17.40;7.73;;;;;;;;;;5044227;28;20044;-68
2024/01/10 11:43:05;;;;;;;16.58;7.40;;;;;;;;;;5046489;28;20039;-68
2024/01/10 11:45:33;;;;;;;12.40;6.25;;;;;;;;;;5046101;28;20037;-68
2024/01/10 11:48:00;;;;;;;14.15;6.93;;;;;;;;;;5047181;28;20097;-68
2024/01/10 11:50:26;;;;;;;14.85;6.75;;;;;;;;;;5046456;28;20572;-68
2024/01/10 11:52:55;;;;;;;15.85;6.95;;;;;;;;;;5046309;28;20246;-68
2024/01/10 11:55:40;;;;;;;13.05;6.20;;;;;;;;;;5047542;28;20029;-69
2024/01/10 11:58:10;;;;;;;13.77;6.32;;;;;;;;;;5047438;28;20040;-69
2024/01/10 12:00:36;;;;;;;16.48;7.60;;;;;;;;;;5050194;28;20028;-69
2024/01/10 12:03:03;;;;;;;14.77;6.22;;;;;;;;;;5049360;28;20028;-69
2024/01/10 12:05:29;;;;;;;14.00;6.93;;;;;;;;;;5053132;28;20037;-69
2024/01/10 12:07:56;;;;;;;15.10;7.18;;;;;;;;;;5052291;28;20032;-69
2024/01/10 12:10:22;;;;;;;12.98;6.28;;;;;;;;;;5054486;28;20148;-69
2024/01/10 12:12:48;;;;;;;13.73;6.95;;;;;;;;;;5069585;28;20087;-69
2024/01/10 12:15:15;;;;;;;15.90;7.25;;;;;;;;;;5055201;28;21751;-69
2024/01/10 12:17:41;;;;;;;15.18;7.38;;;;;;;;;;5054079;28;20036;-69
2024/01/10 12:20:07;;;;;;;16.25;8.75;;;;;;;;;;5054073;28;20062;-69
2024/01/10 12:22:33;;;;;;;15.77;7.35;;;;;;;;;;5054422;28;20036;-69
2024/01/10 12:25:05;;;;;;;11.70;6.45;;;;;;;;;;5053659;28;20041;-69
2024/01/10 12:27:31;;;;;;;15.20;6.95;;;;;;;;;;5054045;28;21811;-69
2024/01/10 12:29:58;;;;;;;15.07;7.10;;;;;;;;;;5053098;28;20055;-69
2024/01/10 12:32:24;;;;;;;16.38;7.88;;;;;;;;;;5053928;28;20032;-69
2024/01/10 12:34:55;;;;;;;17.30;8.02;;;;;;;;;;5054359;28;20072;-69
2024/01/10 12:37:21;;;;;;;14.68;7.60;;;;;;;;;;5055177;28;20070;-69
2024/01/10 12:39:47;;;;;;;14.63;7.18;;;;;;;;;;5055449;28;20076;-69
2024/01/10 12:42:13;;;;;;;15.80;6.57;;;;;;;;;;5054288;28;20554;-69
2024/01/10 12:44:43;;;;;;;15.77;6.93;;;;;;;;;;5054989;28;20502;-69
2024/01/10 12:47:18;;;;;;;12.55;6.18;;;;;;;;;;5054760;28;20047;-69
2024/01/10 12:49:44;;;;;;;15.38;7.30;;;;;;;;;;5055029;28;20123;-69
2024/01/10 12:52:10;;;;;;;13.55;6.72;;;;;;;;;;5054903;28;20044;-70
2024/01/10 12:54:36;;;;;;;18.33;8.38;;;;;;;;;;5055309;28;20085;-68
2024/01/10 12:57:02;;;;;;;18.60;8.02;;;;;;;;;;5054146;28;20032;-68
2024/01/10 12:59:28;;;;;;;13.95;7.22;;;;;;;;;;5053332;28;20048;-69
2024/01/10 13:01:54;;;;;;;15.20;7.55;;;;;;;;;;5054662;28;20070;-69
2024/01/10 13:04:20;;;;;;;14.82;7.63;;;;;;;;;;5055532;28;20043;-69
2024/01/10 13:06:46;;;;;;;16.02;7.68;;;;;;;;;;5056533;28;20047;-69
2024/01/10 13:09:12;;;;;;;17.77;7.93;;;;;;;;;;5056263;28;20036;-69
2024/01/10 13:11:38;;;;;;;14.90;7.22;;;;;;;;;;5054783;28;20056;-69
2024/01/10 13:14:04;;;;;;;18.95;8.18;;;;;;;;;;5071155;28;20040;-69
2024/01/10 13:16:30;;;;;;;15.68;7.65;;;;;;;;;;5054183;28;20032;-69
2024/01/10 13:18:58;;;;;;;18.23;7.35;;;;;;;;;;5054659;28;20479;-69
2024/01/10 13:21:24;;;;;;;17.90;7.53;;;;;;;;;;5053013;28;20040;-69
2024/01/10 13:23:51;;;;;;;15.57;7.28;;;;;;;;;;5054981;28;20121;-69
2024/01/10 13:26:17;;;;;;;17.77;7.43;;;;;;;;;;5055332;28;21384;-69
2024/01/10 13:28:43;;;;;;;16.98;8.25;;;;;;;;;;5054919;28;21734;-69
2024/01/10 13:31:10;;;;;;;16.95;8.05;;;;;;;;;;5055415;28;20737;-69
2024/01/10 13:33:36;;;;;;;18.25;7.68;;;;;;;;;;5054552;28;20115;-69
2024/01/10 13:36:04;;;;;;;14.05;7.50;;;;;;;;;;5054392;28;20579;-69
2024/01/10 13:38:30;;;;;;;17.42;7.50;;;;;;;;;;5054790;28;20631;-69
2024/01/10 13:40:56;;;;;;;14.55;7.05;;;;;;;;;;5053238;28;20044;-69
2024/01/10 13:43:22;;;;;;;14.82;6.68;;;;;;;;;;5054057;28;20052;-69
2024/01/10 13:45:48;;;;;;;17.50;7.80;;;;;;;;;;5052475;28;20151;-69
2024/01/10 13:48:15;;;;;;;17.55;7.35;;;;;;;;;;5052726;28;20036;-69
2024/01/10 13:50:41;;;;;;;12.82;6.28;;;;;;;;;;5052666;28;20132;-69
2024/01/10 13:53:08;;;;;;;12.40;6.10;;;;;;;;;;5051599;28;20484;-69
2024/01/10 13:55:35;;;;;;;20.13;8.38;;;;;;;;;;5053167;28;20071;-69
2024/01/10 13:58:01;;;;;;;17.98;9.45;;;;;;;;;;5051981;28;20037;-69
2024/01/10 14:00:27;;;;;;;19.95;9.52;;;;;;;;;;5052586;28;20039;-69
2024/01/10 14:02:58;;;;;;;21.20;8.88;;;;;;;;;;5052605;28;20036;-69
2024/01/10 14:05:25;;;;;;;19.50;9.32;;;;;;;;;;5051684;28;20070;-69
2024/01/10 14:07:52;;;;;;;18.33;8.82;;;;;;;;;;5050356;28;20072;-69
2024/01/10 14:10:18;;;;;;;19.88;9.50;;;;;;;;;;5051009;28;20084;-69
2024/01/10 14:12:45;;;;;;;17.98;8.60;;;;;;;;;;5050622;28;20039;-69
2024/01/10 14:15:11;;;;;;;19.73;8.60;;;;;;;;;;5050102;28;20033;-69
2024/01/10 14:17:37;;;;;;;21.27;10.00;;;;;;;;;;5051212;28;20119;-69
2024/01/10 14:20:04;;;;;;;16.88;8.82;;;;;;;;;;5051491;28;20678;-69